• Join FlightAware (Why Join?)
  • Login
  • US Flag 
12:02PM EDT


 

Airport Tracker/Info


-or-


 

Live Flight TrackerFlight Track Log ✈ TCF3494 ✈ 13-Jul-2013 ✈ KEWR - KRSW

Flight Track Log - Related Links

Times and Time Zones

All times are in EDT time to prevent confusion due to time zone crossing. See the TCF3494 flight status page for this flight to view local times or setup timezone preferences in your user account.

Time Position Orientation Groundspeed Altitude Reporting Facility
EDT Latitude Longitude Course Direction KTS MPH feet Rate Location/Type
07:48AM 40.7333 -74.1833 222° Southwest 212 244 2,000  Level New York TRACON
07:49AM 40.5518 -74.5381 250° West  Level FlightAware Approximate
07:49AM 40.7167 -74.2500 252° West 243 280 4,300  Level New York TRACON
07:50AM 40.5145 -74.6731 246° West  Level FlightAware Approximate
07:50AM 40.7000 -74.3500 258° West 268 308 7,600  Level New York TRACON
07:51AM 40.4708 -74.8045 246° West  Level FlightAware Approximate
07:51AM 40.6550 -74.4967 248° West 291 335 11,500  Level New York Center
07:52AM 40.4249 -74.9339 252° West  Level FlightAware Approximate
07:52AM 40.6036 -74.6033 238° Southwest 303 349 14,300  Level New York Center
07:53AM 40.3613 -75.0398 222° Southwest  Level FlightAware Approximate
07:53AM 40.5611 -74.6883 237° Southwest 317 365 16,200  Level New York Center
07:54AM 40.5197 -74.8089 246° West 328 377 17,900 1,680 Climbing New York Center
07:55AM 40.4822 -74.9239 247° West 347 399 19,600 1,680 Climbing New York Center
07:56AM 40.4444 -75.0472 248° West 357 411 21,400 1,620 Climbing New York Center
07:57AM 40.4044 -75.1728 247° West 364 419 22,900 1,500 Climbing New York Center
07:58AM 40.3639 -75.3092 249° West 383 441 24,400 1,320 Climbing New York Center
07:59AM 40.3303 -75.4211 249° West 388 447 25,600 1,320 Climbing New York Center
08:00AM 40.2656 -75.5283 232° Southwest 393 452 27,100 1,680 Climbing New York Center
08:01AM 40.1658 -75.5733 199° South 363 418 29,000 1,440 Climbing New York Center
08:02AM 40.0817 -75.6461 213° Southwest 363 418 30,000 900 Climbing New York Center
08:03AM 40.0006 -75.7406 222° Southwest 374 430 30,800 1,140 Climbing New York Center
08:04AM 39.9233 -75.8381 224° Southwest 385 443 32,300 1,200 Climbing New York Center
08:05AM 39.8442 -75.9325 223° Southwest 385 443 33,300 840 Climbing New York Center
08:06AM 39.7647 -76.0292 223° Southwest 390 449 34,100 840 Climbing New York Center
08:07AM 39.6878 -76.1233 223° Southwest 390 449 35,000 660 Climbing New York Center
08:09AM 39.5911 -76.2378 222° Southwest 393 452 35,700 420 Climbing Washington Center
08:10AM 39.5092 -76.3367 223° Southwest 398 458 36,000 120 Climbing Washington Center
08:11AM 39.4336 -76.4381 226° Southwest 398 458 36,000  Level Washington Center
08:12AM 39.3597 -76.5497 229° Southwest 398 458 36,000  Level Washington Center
08:13AM 39.2900 -76.6589 230° Southwest 403 464 36,000  Level Washington Center
08:14AM 39.2161 -76.7756 231° Southwest 397 457 36,000  Level Washington Center
08:15AM 39.1461 -76.8842 230° Southwest 397 457 36,000  Level Washington Center
08:16AM 39.0742 -76.9953 230° Southwest 403 464 36,000  Level Washington Center
08:17AM 38.9958 -77.0925 224° Southwest 398 458 36,000  Level Washington Center
08:18AM 38.9111 -77.1842 220° Southwest 398 458 36,000  Level Washington Center
08:19AM 38.8264 -77.2783 221° Southwest 403 464 36,000  Level Washington Center
08:20AM 38.7419 -77.3697 220° Southwest 403 464 36,000  Level Washington Center
08:21AM 38.6569 -77.4581 219° Southwest 403 464 36,000  Level Washington Center
08:22AM 38.5722 -77.5514 221° Southwest 408 470 36,000  Level Washington Center
08:23AM 38.4914 -77.6422 221° Southwest 403 464 36,000  Level Washington Center
08:24AM 38.4064 -77.7325 220° Southwest 403 464 36,000  Level Washington Center
08:25AM 38.3256 -77.8203 220° Southwest 403 464 36,000  Level Washington Center
08:26AM 38.2425 -77.9103 220° Southwest 398 458 36,000  Level Washington Center
08:27AM 38.1594 -77.9975 220° Southwest 398 458 36,000  Level Washington Center
08:28AM 38.0786 -78.0872 221° Southwest 398 458 36,000  Level Washington Center
08:29AM 38.0061 -78.1639 220° Southwest 398 458 36,000  Level Washington Center
08:30AM 37.9228 -78.2453 218° Southwest 393 452 36,000  Level Washington Center
08:31AM 37.8269 -78.3339 216° Southwest 388 447 36,000  Level Washington Center
08:32AM 37.7439 -78.4150 218° Southwest 383 441 36,000  Level Washington Center
08:33AM 37.6583 -78.4958 217° Southwest 383 441 36,000  Level Washington Center
08:34AM 37.5731 -78.5764 217° Southwest 383 441 36,000  Level Washington Center
08:35AM 37.4942 -78.6464 215° Southwest 383 441 36,000  Level Washington Center
08:36AM 37.4086 -78.7294 218° Southwest 383 441 36,000  Level Washington Center
08:37AM 37.3231 -78.8067 216° Southwest 388 447 36,000  Level Washington Center
08:38AM 37.2353 -78.8867 216° Southwest 388 447 36,000  Level Washington Center
08:39AM 37.1497 -78.9664 217° Southwest 388 447 36,000  Level Washington Center
08:40AM 37.0531 -79.0558 216° Southwest 388 447 36,000  Level Washington Center
08:41AM 36.9694 -79.1378 218° Southwest 388 447 36,000  Level Washington Center
08:42AM 36.8814 -79.2169 216° Southwest 388 447 36,000  Level Washington Center
08:43AM 36.7956 -79.2958 216° Southwest 388 447 36,000  Level Washington Center
08:44AM 36.7078 -79.3744 216° Southwest 388 447 36,000  Level Washington Center
08:45AM 36.6303 -79.4458 216° Southwest 388 447 36,000  Level Washington Center
08:46AM 36.5419 -79.5267 216° Southwest 394 453 36,000  Level Washington Center
08:47AM 36.4092 -79.6456 216° Southwest 381 438 36,000  Level Atlanta Center
08:48AM 36.3225 -79.7250 216° Southwest 386 444 36,000  Level Atlanta Center
08:49AM 36.2356 -79.8044 216° Southwest 392 451 36,000  Level Atlanta Center
08:50AM 36.1372 -79.8608 205° Southwest 392 451 36,000  Level Atlanta Center
08:51AM 36.0492 -79.9039 202° Southwest 392 451 36,000  Level Atlanta Center
08:52AM 35.9531 -79.9603 205° Southwest 387 445 36,000  Level Atlanta Center
08:53AM 35.8567 -80.0111 203° Southwest 387 445 36,000  Level Atlanta Center
08:54AM 35.7583 -80.0644 204° Southwest 392 451 36,000  Level Atlanta Center
08:55AM 35.6597 -80.1153 203° Southwest 392 451 36,000  Level Atlanta Center
08:56AM 35.5633 -80.1711 205° Southwest 392 451 36,000  Level Atlanta Center
08:57AM 35.4628 -80.2242 203° Southwest 392 451 36,000  Level Atlanta Center
08:58AM 35.3561 -80.2800 203° Southwest 387 445 36,000  Level Atlanta Center
09:00AM 35.1775 -80.3736 203° Southwest 394 453 36,000  Level Jacksonville Center
09:01AM 35.0806 -80.4219 202° Southwest 384 442 36,000  Level Jacksonville Center
09:02AM 34.9814 -80.4756 204° Southwest 390 449 36,000  Level Jacksonville Center
09:03AM 34.8825 -80.5289 204° Southwest 390 449 36,000  Level Jacksonville Center
09:04AM 34.7792 -80.5850 204° Southwest 384 442 36,000  Level Jacksonville Center
09:05AM 34.6800 -80.6331 202° Southwest 384 442 36,000  Level Jacksonville Center
09:06AM 34.5808 -80.6886 205° Southwest 384 442 36,000  Level Jacksonville Center
09:07AM 34.4753 -80.7417 203° Southwest 399 459 36,000  Level Jacksonville Center
09:08AM 34.3739 -80.7919 202° Southwest 393 452 36,000  Level Jacksonville Center
09:09AM 34.2850 -80.8394 204° Southwest 388 447 36,000  Level Jacksonville Center
09:10AM 34.1814 -80.8919 203° Southwest 382 440 36,000  Level Jacksonville Center
09:11AM 34.0842 -80.9444 204° Southwest 382 440 36,000  Level Jacksonville Center
09:12AM 33.9828 -80.9967 203° Southwest 392 451 36,000  Level Jacksonville Center
09:13AM 33.8833 -81.0414 200° South 392 451 36,000  Level Jacksonville Center
09:14AM 33.7839 -81.0933 203° Southwest 392 451 36,000  Level Jacksonville Center
09:15AM 33.6867 -81.1453 204° Southwest 387 445 36,000  Level Jacksonville Center
09:16AM 33.5828 -81.1922 201° Southwest 392 451 36,000  Level Jacksonville Center
09:17AM 33.4856 -81.2439 204° Southwest 392 451 36,000  Level Jacksonville Center
09:18AM 33.3839 -81.2931 202° Southwest 392 451 36,000  Level Jacksonville Center
09:19AM 33.2822 -81.3397 201° Southwest 392 451 36,000  Level Jacksonville Center
09:20AM 33.1825 -81.3911 203° Southwest 392 451 36,000  Level Jacksonville Center
09:21AM 33.0831 -81.4372 201° Southwest 392 451 36,000  Level Jacksonville Center
09:22AM 32.9833 -81.4883 203° Southwest 392 451 36,000  Level Jacksonville Center
09:23AM 32.8817 -81.5344 201° Southwest 392 451 36,000  Level Jacksonville Center
09:24AM 32.7819 -81.5831 202° Southwest 392 451 36,000  Level Jacksonville Center
09:25AM 32.6822 -81.6339 203° Southwest 392 451 36,000  Level Jacksonville Center
09:26AM 32.5825 -81.6819 202° Southwest 390 449 36,000  Level Jacksonville Center
09:27AM 32.4931 -81.7250 202° Southwest 390 449 36,000  Level Jacksonville Center
09:28AM 32.3789 -81.7808 202° Southwest 395 455 36,000  Level Jacksonville Center
09:29AM 32.2789 -81.8261 201° Southwest 390 449 36,000  Level Jacksonville Center
09:30AM 32.1769 -81.8739 202° Southwest 390 449 36,000  Level Jacksonville Center
09:31AM 32.0772 -81.9217 202° Southwest 384 442 36,000  Level Jacksonville Center
09:32AM 31.9836 -81.9667 202° Southwest 394 453 36,000  Level Jacksonville Center
09:33AM 31.8647 -81.9803 186° South 394 453 36,000  Level Jacksonville Center
09:34AM 31.7561 -81.9908 185° South 399 459 36,000  Level Jacksonville Center
09:35AM 31.6561 -81.9992 184° South 393 452 36,000  Level Jacksonville Center
09:36AM 31.5372 -82.0125 185° South 393 452 36,000  Level Jacksonville Center
09:37AM 31.4267 -82.0233 185° South 393 452 36,000  Level Jacksonville Center
09:38AM 31.3181 -82.0317 184° South 403 464 36,000  Level Jacksonville Center
09:39AM 31.2053 -82.0425 185° South 403 464 36,000  Level Jacksonville Center
09:40AM 31.0947 -82.0531 185° South 403 464 36,000  Level Jacksonville Center
09:41AM 30.9883 -82.0639 185° South 403 464 36,000  Level Jacksonville Center
09:42AM 30.8797 -82.0719 184° South 396 456 36,000  Level Jacksonville Center
09:43AM 30.7756 -82.0825 185° South 391 450 36,000  Level Jacksonville Center
09:44AM 30.6692 -82.0908 184° South 386 444 36,000  Level Jacksonville Center
09:45AM 30.5647 -82.1011 185° South 386 444 36,000  Level Jacksonville Center
09:46AM 30.4667 -82.1044 182° South 386 444 36,000  Level Jacksonville Center
09:47AM 30.3603 -82.1150 185° South 386 444 36,000 -300 Level Jacksonville Center
09:48AM 30.2494 -82.1231 184° South 386 444 35,400 -540 Descending Jacksonville Center
09:49AM 30.1431 -82.1217 179° South 386 444 35,000 -240 Descending Jacksonville Center
09:50AM 30.0322 -82.1008 171° South 386 444 35,000  Level Jacksonville Center
09:51AM 29.9258 -82.0825 172° South 391 450 35,000  Level Jacksonville Center
09:52AM 29.8192 -82.0619 171° South 391 450 35,000  Level Jacksonville Center
09:53AM 29.7125 -82.0364 168° South 391 450 35,000  Level Jacksonville Center
09:54AM 29.6039 -82.0183 172° South 396 456 35,000  Level Jacksonville Center
09:55AM 29.4992 -81.9978 170° South 396 456 35,000  Level Jacksonville Center
09:56AM 29.3928 -81.9772 170° South 391 450 35,000  Level Jacksonville Center
09:57AM 29.2819 -81.9569 171° South 391 450 35,000  Level Jacksonville Center
09:59AM 29.1042 -81.9175 169° South 400 460 35,000  Level Miami Center
10:00AM 28.9944 -81.8958 170° South 406 467 35,000 -960 Level Miami Center
10:01AM 28.8867 -81.8742 170° South 406 467 33,200 -2,040 Descending Miami Center
10:02AM 28.7686 -81.8525 171° South 396 456 31,000 -2,160 Descending Miami Center
10:03AM 28.6631 -81.8311 170° South 396 456 28,900 -2,040 Descending Miami Center
10:04AM 28.5617 -81.8100 170° South 384 442 27,000 -960 Descending Miami Center
10:05AM 28.4603 -81.7819 166° South 379 436 27,000  Level Miami Center
10:06AM 28.3611 -81.7539 166° South 373 429 27,000 -300 Level Miami Center
10:07AM 28.2683 -81.7264 165° South 373 429 26,400 -780 Descending Miami Center
10:08AM 28.1711 -81.7011 167° South 373 429 25,500 -900 Descending Miami Center
10:09AM 28.0739 -81.6711 165° South 373 429 24,600 -900 Descending Miami Center
10:10AM 27.9772 -81.6903 190° South 355 409 23,700 -1,080 Descending Miami Center
10:11AM 27.8806 -81.7167 194° South 355 409 22,500 -1,260 Descending Miami Center
10:12AM 27.7814 -81.7453 194° South 350 403 21,200 -1,200 Descending Miami Center
10:13AM 27.6953 -81.7650 191° South 345 397 20,100 -1,620 Descending Miami Center
10:14AM 27.6014 -81.7611 178° South 339 390 18,100 -2,100 Descending Miami Center
10:15AM 27.5047 -81.7219 160° South 325 374 16,000 -1,680 Descending Miami Center
10:16AM 27.4225 -81.6811 156° South 325 374 14,800 -1,200 Descending Miami Center
10:17AM 27.3403 -81.6425 157° South 325 374 13,600 -1,200 Descending Miami Center
10:18AM 27.2561 -81.6017 157° South 325 374 12,400 -1,260 Descending Miami Center
10:19AM 27.1739 -81.5633 157° South 325 374 11,100 -1,320 Descending Miami Center
10:20AM 27.0958 -81.5250 156° South 320 368 9,900 6,360 Descending Miami Center
10:21AM 27.0197 -81.4894 157° South 315 362 24,000  Climbing Miami Center
10:22AM 26.9458 -81.4517 155° Southeast 301 346 10,000 -7,140 Descending Miami Center
10:23AM 26.8717 -81.4136 155° Southeast 291 335 9,900 -960 Descending Miami Center
10:24AM 26.7997 -81.3806 158° South 286 329 8,100 -1,800 Descending Miami Center
10:25AM 26.7219 -81.3939 189° South 274 315 6,400 -1,740 Descending Miami Center
10:26AM 26.6525 -81.4192 198° South 274 315 4,700 -1,200 Descending Miami Center
10:27AM 26.6108 -81.4825 234° Southwest 264 304 4,000 -360 Descending Miami Center
10:28AM 26.5711 -81.5461 235° Southwest 268 308 4,000  Level Miami Center
10:30AM 26.5362 -81.7552 204° Southwest  Level Estimated
10:37AM 26.5333 -81.7500 318° Northwest  Level FlightAware Approximate
10:38AM 26.5362 -81.7552 318° Northwest  Level Estimated